WXM80 ListenWXM80 Stop

You find our weather info also at:

UK Metoffice

WeatherCloud

Weather Underground

Northeastern Weather Network

AWEKAS

Citizen Weather Observer Program (CWOP)

HAMweather, WeatherForYou, PWS Weather


Weather Underground History page Text

Daily Summary for April 18, 2017 Units:  English    Metric   Both
« Previous Day
Next Day »
Daily Weekly Monthly Yearly Custom
  High: Low: Average:
Temperature: 67.0 °F 45.8 °F 54.2 °F
Dew Point: 43.8 °F 35.4 °F 40.3 °F
Humidity: 82 % 37 % 61 %
Wind Speed: 9.7 mph 0.0 mph 3.3 mph
Wind Gust: 18.4 mph - -
Wind:- - ESE
Pressure: 30.50 in 30.11 in -
Precipitation: 0.00 in    
Historical Graphs
 
 
Tabular Data for April 18, 2017
Time Temperature Dew Point Pressure Wind Wind Speed Wind Gust Humidity Rainfall Rate (Hourly)
00:04 57.1 °F 37.0 °F 30.11 in WNW 1.2 mph 4.6 mph 47 % 0.00 in
00:09 56.9 °F 36.9 °F 30.11 in WNW 2.1 mph 7.0 mph 47 % 0.00 in
00:14 56.6 °F 36.0 °F 30.12 in WNW 2.7 mph 6.0 mph 46 % 0.00 in
00:19 56.5 °F 35.4 °F 30.12 in NW 2.3 mph 5.8 mph 45 % 0.00 in
00:24 56.4 °F 35.9 °F 30.13 in WNW 2.3 mph 3.5 mph 46 % 0.00 in
00:29 56.3 °F 35.8 °F 30.12 in NW 1.7 mph 5.0 mph 46 % 0.00 in
00:34 56.2 °F 35.7 °F 30.12 in WNW 2.3 mph 3.5 mph 46 % 0.00 in
00:39 56.1 °F 36.1 °F 30.13 in NNW 2.7 mph 5.0 mph 47 % 0.00 in
00:44 55.9 °F 35.9 °F 30.12 in WNW 1.1 mph 3.5 mph 47 % 0.00 in
00:49 55.8 °F 36.4 °F 30.13 in NW 0.3 mph 3.5 mph 48 % 0.00 in
00:54 55.6 °F 35.7 °F 30.13 in Calm   4.6 mph 47 % 0.00 in
00:59 55.5 °F 35.6 °F 30.13 in Calm   2.3 mph 47 % 0.00 in
01:04 55.3 °F 35.4 °F 30.13 in Calm     47 % 0.00 in
01:14 55.0 °F 36.2 °F 30.13 in NW 1.1 mph 3.5 mph 49 % 0.00 in
01:19 54.8 °F 36.5 °F 30.13 in North 2.5 mph 3.5 mph 50 % 0.00 in
01:24 54.5 °F 36.2 °F 30.13 in NNW 0.9 mph 5.8 mph 50 % 0.00 in
01:29 54.2 °F 36.9 °F 30.13 in North 2.7 mph 4.0 mph 52 % 0.00 in
01:34 54.0 °F 37.7 °F 30.13 in North 3.9 mph 6.9 mph 54 % 0.00 in
01:39 53.7 °F 37.9 °F 30.14 in NNE 1.7 mph 3.5 mph 55 % 0.00 in
01:44 53.6 °F 38.7 °F 30.14 in NE 1.7 mph 3.5 mph 57 % 0.00 in
01:49 53.4 °F 39.4 °F 30.14 in NE 0.7 mph 2.3 mph 59 % 0.00 in
01:54 53.1 °F 38.7 °F 30.14 in North 3.8 mph 6.9 mph 58 % 0.00 in
01:59 52.9 °F 38.1 °F 30.14 in North 5.2 mph 8.1 mph 57 % 0.00 in
02:04 52.7 °F 37.4 °F 30.14 in NNE 2.5 mph 4.6 mph 56 % 0.00 in
02:09 52.6 °F 37.8 °F 30.14 in NE 0.8 mph 2.3 mph 57 % 0.00 in
02:14 52.4 °F 39.3 °F 30.14 in Calm   1.2 mph 61 % 0.00 in
02:19 52.3 °F 39.7 °F 30.15 in Calm     62 % 0.00 in
02:24 52.1 °F 39.5 °F 30.15 in Calm     62 % 0.00 in
02:30 51.9 °F 39.7 °F 30.14 in Calm     63 % 0.00 in
02:35 51.7 °F 39.9 °F 30.15 in Calm     64 % 0.00 in
02:40 51.5 °F 39.7 °F 30.15 in Calm   1.2 mph 64 % 0.00 in
02:45 51.4 °F 40.0 °F 30.16 in Calm     65 % 0.00 in
02:50 51.1 °F 40.1 °F 30.16 in Calm   1.2 mph 66 % 0.00 in
02:55 50.9 °F 39.9 °F 30.16 in NNE 2.6 mph 3.5 mph 66 % 0.00 in
03:00 50.7 °F 40.1 °F 30.16 in NNE 1.4 mph 3.5 mph 67 % 0.00 in
03:05 50.5 °F 40.3 °F 30.16 in NNE 0.6 mph 4.6 mph 68 % 0.00 in
03:10 50.3 °F 40.5 °F 30.17 in NNE 1.5 mph 3.5 mph 69 % 0.00 in
03:15 50.1 °F 40.3 °F 30.17 in NNE 2.3 mph 3.5 mph 69 % 0.00 in
03:20 49.9 °F 40.1 °F 30.17 in NNE 2.5 mph 3.5 mph 69 % 0.00 in
03:25 49.7 °F 39.6 °F 30.18 in NNE 2.0 mph 3.5 mph 68 % 0.00 in
03:30 49.6 °F 39.8 °F 30.18 in NNE 1.6 mph 3.5 mph 69 % 0.00 in
03:35 49.5 °F 39.7 °F 30.18 in NNE 2.2 mph 3.5 mph 69 % 0.00 in
03:40 49.4 °F 39.7 °F 30.18 in NNE 1.3 mph 3.5 mph 69 % 0.00 in
03:45 49.3 °F 39.6 °F 30.18 in NNE 2.0 mph 3.5 mph 69 % 0.00 in
03:50 49.2 °F 40.2 °F 30.19 in NNE 4.2 mph 7.0 mph 71 % 0.00 in
03:55 49.1 °F 39.7 °F 30.19 in NNE 5.4 mph 8.1 mph 70 % 0.00 in
04:01 49.1 °F 40.1 °F 30.19 in NNE 5.7 mph 10.4 mph 71 % 0.00 in
04:06 49.1 °F 39.7 °F 30.19 in North 5.8 mph 8.1 mph 70 % 0.00 in
04:11 49.2 °F 39.1 °F 30.20 in NNE 5.0 mph 9.2 mph 68 % 0.00 in
04:15 49.2 °F 39.5 °F 30.19 in North 3.3 mph 5.8 mph 69 % 0.00 in
04:20 49.2 °F 39.5 °F 30.20 in NNE 4.8 mph 6.9 mph 69 % 0.00 in
04:25 49.3 °F 39.9 °F 30.20 in NE 4.6 mph 6.9 mph 70 % 0.00 in
04:30 49.2 °F 39.5 °F 30.20 in North 5.7 mph 8.1 mph 69 % 0.00 in
04:36 49.2 °F 39.5 °F 30.20 in North 5.9 mph 7.0 mph 69 % 0.00 in
04:41 49.2 °F 39.8 °F 30.21 in NNE 5.3 mph 8.1 mph 70 % 0.00 in
04:46 49.2 °F 40.2 °F 30.21 in NNE 4.5 mph 5.8 mph 71 % 0.00 in
04:51 49.1 °F 40.8 °F 30.21 in NNE 4.1 mph 5.8 mph 73 % 0.00 in
04:56 49.0 °F 40.7 °F 30.22 in NNE 3.9 mph 4.6 mph 73 % 0.00 in
05:01 48.8 °F 40.9 °F 30.22 in NNE 4.1 mph 5.8 mph 74 % 0.00 in
05:06 48.7 °F 40.1 °F 30.22 in NNE 5.1 mph 6.0 mph 72 % 0.00 in
05:11 48.6 °F 40.0 °F 30.22 in North 2.3 mph 5.8 mph 72 % 0.00 in
05:16 48.5 °F 39.9 °F 30.23 in North 2.1 mph 3.5 mph 72 % 0.00 in
05:21 48.4 °F 39.8 °F 30.23 in NNE 3.3 mph 4.6 mph 72 % 0.00 in
05:26 48.3 °F 39.7 °F 30.22 in NNE 1.0 mph 4.6 mph 72 % 0.00 in
05:31 48.2 °F 39.6 °F 30.23 in North 2.9 mph 4.6 mph 72 % 0.00 in
05:36 48.1 °F 39.9 °F 30.23 in NNE 3.0 mph 4.6 mph 73 % 0.00 in
05:41 48.0 °F 39.8 °F 30.24 in North 3.2 mph 3.5 mph 73 % 0.00 in
05:46 47.9 °F 40.0 °F 30.24 in North 1.7 mph 3.5 mph 74 % 0.00 in
05:51 47.8 °F 39.9 °F 30.24 in NNE 2.2 mph 3.5 mph 74 % 0.00 in
06:01 47.6 °F 40.1 °F 30.25 in NNE 1.6 mph 3.5 mph 75 % 0.00 in
06:06 47.5 °F 40.0 °F 30.25 in North 2.6 mph 4.0 mph 75 % 0.00 in
06:11 47.4 °F 39.9 °F 30.26 in NNW 2.3 mph 5.8 mph 75 % 0.00 in
06:17 47.3 °F 39.8 °F 30.26 in NNE 3.0 mph 4.6 mph 75 % 0.00 in
06:22 47.3 °F 39.8 °F 30.26 in North 2.6 mph 6.9 mph 75 % 0.00 in
06:24 47.2 °F 39.7 °F 30.26 in NNE 2.8 mph 5.8 mph 75 % 0.00 in
06:29 47.3 °F 39.8 °F 30.26 in North 2.9 mph 4.6 mph 75 % 0.00 in
06:34 47.3 °F 40.1 °F 30.27 in North 2.8 mph 4.0 mph 76 % 0.00 in
06:39 47.4 °F 40.6 °F 30.27 in North 2.7 mph 3.5 mph 77 % 0.00 in
06:44 47.5 °F 40.3 °F 30.27 in NNE 3.7 mph 4.6 mph 76 % 0.00 in
06:49 47.6 °F 40.1 °F 30.27 in NNE 3.7 mph 5.8 mph 75 % 0.00 in
06:54 47.9 °F 40.0 °F 30.27 in NNE 3.1 mph 4.6 mph 74 % 0.00 in
06:59 48.2 °F 40.3 °F 30.27 in North 2.5 mph 3.5 mph 74 % 0.00 in
07:04 48.5 °F 40.6 °F 30.28 in NNE 2.5 mph 5.8 mph 74 % 0.00 in
07:09 48.8 °F 40.9 °F 30.28 in NNE 4.2 mph 6.0 mph 74 % 0.00 in
07:14 49.2 °F 41.3 °F 30.29 in NNE 3.7 mph 6.9 mph 74 % 0.00 in
07:19 49.5 °F 41.2 °F 30.29 in NNE 3.9 mph 6.0 mph 73 % 0.00 in
07:20 49.6 °F 41.3 °F 30.29 in NNE 4.7 mph 6.9 mph 73 % 0.00 in
07:25 50.0 °F 41.3 °F 30.29 in NNE 3.8 mph 5.0 mph 72 % 0.00 in
07:30 50.4 °F 41.3 °F 30.29 in North 2.3 mph 5.0 mph 71 % 0.00 in
07:35 50.6 °F 41.2 °F 30.29 in NE 3.0 mph 5.0 mph 70 % 0.00 in
07:40 50.9 °F 41.8 °F 30.29 in North 3.4 mph 7.0 mph 71 % 0.00 in
07:46 51.1 °F 42.0 °F 30.29 in NNE 3.5 mph 5.8 mph 71 % 0.00 in
07:51 51.3 °F 42.2 °F 30.29 in NE 1.9 mph 3.5 mph 71 % 0.00 in
07:56 51.5 °F 42.4 °F 30.30 in NNE 2.8 mph 4.6 mph 71 % 0.00 in
08:01 51.7 °F 42.6 °F 30.29 in North 2.4 mph 4.0 mph 71 % 0.00 in
08:06 51.9 °F 42.0 °F 30.30 in North 3.4 mph 5.8 mph 69 % 0.00 in
08:11 52.0 °F 42.1 °F 30.30 in NNE 3.7 mph 5.0 mph 69 % 0.00 in
08:16 52.0 °F 42.1 °F 30.30 in North 4.7 mph 5.8 mph 69 % 0.00 in
08:21 52.1 °F 42.2 °F 30.31 in North 3.6 mph 7.0 mph 69 % 0.00 in
08:26 52.1 °F 42.2 °F 30.31 in North 6.0 mph 8.1 mph 69 % 0.00 in
08:31 52.2 °F 42.3 °F 30.31 in NNE 5.8 mph 9.2 mph 69 % 0.00 in
08:36 52.3 °F 42.4 °F 30.31 in NE 4.1 mph 5.8 mph 69 % 0.00 in
08:46 52.8 °F 42.9 °F 30.31 in NNE 5.7 mph 10.4 mph 69 % 0.00 in
08:51 53.3 °F 43.0 °F 30.31 in North 4.2 mph 6.9 mph 68 % 0.00 in
08:57 53.7 °F 43.4 °F 30.31 in NNE 5.1 mph 8.1 mph 68 % 0.00 in
09:02 53.9 °F 42.8 °F 30.31 in North 6.0 mph 9.2 mph 66 % 0.00 in
09:07 54.1 °F 43.0 °F 30.31 in NNE 4.4 mph 8.0 mph 66 % 0.00 in
09:12 54.5 °F 43.0 °F 30.32 in NNE 5.0 mph 6.9 mph 65 % 0.00 in
09:17 54.8 °F 42.4 °F 30.32 in NE 4.4 mph 5.8 mph 63 % 0.00 in
09:22 55.4 °F 43.0 °F 30.32 in NNE 3.3 mph 4.6 mph 63 % 0.00 in
09:27 55.7 °F 42.5 °F 30.32 in NE 3.0 mph 4.0 mph 61 % 0.00 in
09:32 56.1 °F 42.4 °F 30.33 in NNW 3.0 mph 4.6 mph 60 % 0.00 in
09:37 56.6 °F 43.7 °F 30.33 in NNE 3.4 mph 4.6 mph 62 % 0.00 in
09:42 57.1 °F 42.9 °F 30.33 in NNE 2.1 mph 4.0 mph 59 % 0.00 in
09:47 57.4 °F 42.3 °F 30.33 in NNE 5.0 mph 7.0 mph 57 % 0.00 in
09:52 57.6 °F 42.0 °F 30.34 in NNE 3.0 mph 6.0 mph 56 % 0.00 in
10:02 57.9 °F 41.8 °F 30.34 in ENE 3.2 mph 6.9 mph 55 % 0.00 in
10:07 58.0 °F 42.8 °F 30.34 in ENE 2.0 mph 6.0 mph 57 % 0.00 in
10:12 57.8 °F 40.8 °F 30.34 in ENE 2.0 mph 8.0 mph 53 % 0.00 in
10:17 57.8 °F 41.3 °F 30.34 in ENE 5.0 mph 6.0 mph 54 % 0.00 in
10:22 57.7 °F 40.7 °F 30.34 in ENE 6.0 mph 10.0 mph 53 % 0.00 in
10:27 57.6 °F 41.5 °F 30.34 in ENE 5.0 mph 8.0 mph 55 % 0.00 in
10:32 57.9 °F 40.9 °F 30.35 in East 3.7 mph 6.9 mph 53 % 0.00 in
10:37 57.9 °F 40.9 °F 30.35 in ENE 3.6 mph 5.8 mph 53 % 0.00 in
10:42 58.3 °F 41.7 °F 30.35 in East 3.1 mph 6.0 mph 54 % 0.00 in
10:47 58.6 °F 41.5 °F 30.35 in East 2.4 mph 7.0 mph 53 % 0.00 in
10:52 58.8 °F 40.7 °F 30.35 in ENE 5.0 mph 8.0 mph 51 % 0.00 in
10:57 59.0 °F 40.9 °F 30.35 in East 2.6 mph 3.5 mph 51 % 0.00 in
11:02 59.5 °F 40.8 °F 30.35 in ENE 2.9 mph 4.6 mph 50 % 0.00 in
11:07 59.6 °F 39.9 °F 30.35 in ENE 1.4 mph 6.9 mph 48 % 0.00 in
11:12 59.9 °F 40.7 °F 30.35 in ENE 2.9 mph 6.9 mph 49 % 0.00 in
11:17 59.5 °F 39.2 °F 30.35 in East 2.2 mph 5.8 mph 47 % 0.00 in
11:22 59.5 °F 40.3 °F 30.35 in ENE 2.0 mph 5.0 mph 49 % 0.00 in
11:27 59.8 °F 39.5 °F 30.35 in East 1.9 mph 6.9 mph 47 % 0.00 in
11:32 60.0 °F 40.2 °F 30.35 in ENE 2.5 mph 6.9 mph 48 % 0.00 in
11:37 60.3 °F 41.0 °F 30.35 in ENE 1.1 mph 4.6 mph 49 % 0.00 in
11:42 60.7 °F 40.3 °F 30.35 in ESE 2.0 mph 3.5 mph 47 % 0.00 in
11:47 61.2 °F 39.7 °F 30.35 in East 1.6 mph 3.5 mph 45 % 0.00 in
11:52 61.8 °F 40.8 °F 30.35 in ENE 2.5 mph 5.0 mph 46 % 0.00 in
11:58 62.4 °F 41.9 °F 30.35 in ENE 3.4 mph 5.8 mph 47 % 0.00 in
12:08 63.0 °F 41.9 °F 30.35 in NNE 2.0 mph 4.6 mph 46 % 0.00 in
12:13 63.7 °F 42.5 °F 30.35 in East 2.8 mph 6.0 mph 46 % 0.00 in
12:14 63.8 °F 41.5 °F 30.35 in East 2.2 mph 5.8 mph 44 % 0.00 in
12:19 63.9 °F 41.0 °F 30.35 in NNW 1.3 mph 4.0 mph 43 % 0.00 in
12:24 63.8 °F 40.9 °F 30.34 in NE 2.9 mph 6.0 mph 43 % 0.00 in
12:29 63.5 °F 40.6 °F 30.34 in ENE 1.3 mph 8.1 mph 43 % 0.00 in
12:34 63.1 °F 40.2 °F 30.34 in East 0.1 mph 2.3 mph 43 % 0.00 in
12:39 63.3 °F 41.0 °F 30.34 in NE 1.6 mph 4.6 mph 44 % 0.00 in
12:44 63.4 °F 39.9 °F 30.34 in NNE 3.1 mph 4.6 mph 42 % 0.00 in
12:49 63.3 °F 41.0 °F 30.34 in ENE 3.1 mph 4.6 mph 44 % 0.00 in
12:55 63.6 °F 41.3 °F 30.34 in NNE 0.2 mph 3.5 mph 44 % 0.00 in
13:00 64.2 °F 41.2 °F 30.34 in NNE 2.1 mph 5.0 mph 43 % 0.00 in
13:05 65.0 °F 41.3 °F 30.34 in NNE 3.5 mph 3.5 mph 42 % 0.00 in
13:10 65.0 °F 39.4 °F 30.34 in ENE 2.9 mph 4.6 mph 39 % 0.00 in
13:15 65.3 °F 41.6 °F 30.34 in North 2.5 mph 4.6 mph 42 % 0.00 in
13:20 65.9 °F 40.9 °F 30.34 in NNE 2.6 mph 4.6 mph 40 % 0.00 in
13:25 66.3 °F 40.6 °F 30.34 in North 3.0 mph 4.6 mph 39 % 0.00 in
13:30 66.5 °F 40.8 °F 30.34 in North 4.2 mph 5.8 mph 39 % 0.00 in
13:35 66.6 °F 40.2 °F 30.34 in NNE 3.4 mph 4.6 mph 38 % 0.00 in
13:40 66.8 °F 40.4 °F 30.34 in North 4.4 mph 5.0 mph 38 % 0.00 in
13:45 67.0 °F 39.9 °F 30.34 in East 3.5 mph 8.0 mph 37 % 0.00 in
13:50 66.2 °F 39.8 °F 30.34 in ENE 2.6 mph 5.8 mph 38 % 0.00 in
13:55 65.1 °F 39.5 °F 30.34 in ENE 4.0 mph 6.9 mph 39 % 0.00 in
14:00 64.1 °F 38.0 °F 30.34 in ENE 3.8 mph 5.0 mph 38 % 0.00 in
14:05 64.1 °F 40.5 °F 30.34 in ENE 2.7 mph 4.0 mph 42 % 0.00 in
14:10 64.0 °F 39.8 °F 30.34 in ENE 3.2 mph 4.6 mph 41 % 0.00 in
14:15 63.8 °F 39.6 °F 30.34 in ENE 3.7 mph 4.6 mph 41 % 0.00 in
14:20 63.3 °F 38.6 °F 30.34 in ENE 3.0 mph 3.5 mph 40 % 0.00 in
14:26 63.4 °F 39.9 °F 30.34 in NE 2.9 mph 3.5 mph 42 % 0.00 in
14:31 63.9 °F 41.0 °F 30.34 in NE 2.7 mph 3.5 mph 43 % 0.00 in
14:36 64.3 °F 41.3 °F 30.34 in SSE 3.9 mph 10.4 mph 43 % 0.00 in
14:41 64.5 °F 43.8 °F 30.34 in ESE 2.8 mph 4.6 mph 47 % 0.00 in
14:46 64.3 °F 43.6 °F 30.34 in SE 7.3 mph 11.5 mph 47 % 0.00 in
14:51 63.5 °F 41.8 °F 30.34 in South 4.9 mph 9.2 mph 45 % 0.00 in
14:56 62.9 °F 41.8 °F 30.34 in SE 5.1 mph 11.5 mph 46 % 0.00 in
15:01 62.2 °F 41.2 °F 30.34 in SE 8.4 mph 13.8 mph 46 % 0.00 in
15:06 61.3 °F 41.4 °F 30.34 in SE 7.1 mph 11.5 mph 48 % 0.00 in
15:12 60.7 °F 41.9 °F 30.34 in South 5.3 mph 11.5 mph 50 % 0.00 in
15:17 60.5 °F 41.2 °F 30.35 in South 8.4 mph 9.0 mph 49 % 0.00 in
15:22 59.9 °F 41.2 °F 30.34 in SE 4.6 mph 13.8 mph 50 % 0.00 in
15:27 60.0 °F 41.8 °F 30.34 in SW 4.5 mph 6.9 mph 51 % 0.00 in
15:32 60.3 °F 42.1 °F 30.35 in SSE 4.8 mph 8.1 mph 51 % 0.00 in
15:37 60.4 °F 42.2 °F 30.34 in SSW 3.5 mph 6.9 mph 51 % 0.00 in
15:42 60.3 °F 41.0 °F 30.34 in SSW 1.9 mph 10.4 mph 49 % 0.00 in
15:47 60.5 °F 42.3 °F 30.35 in SSE 4.4 mph 10.4 mph 51 % 0.00 in
15:53 60.5 °F 41.8 °F 30.34 in South 5.5 mph 9.2 mph 50 % 0.00 in
15:58 59.8 °F 41.1 °F 30.35 in South 4.4 mph 18.4 mph 50 % 0.00 in
16:03 59.5 °F 41.9 °F 30.35 in South 4.5 mph 8.0 mph 52 % 0.00 in
16:08 59.2 °F 42.1 °F 30.35 in South 5.2 mph 8.1 mph 53 % 0.00 in
16:13 59.4 °F 42.3 °F 30.36 in SSW 5.2 mph 10.0 mph 53 % 0.00 in
16:18 59.1 °F 42.0 °F 30.35 in ESE 5.5 mph 11.5 mph 53 % 0.00 in
16:23 59.1 °F 42.0 °F 30.35 in SSE 4.2 mph 9.2 mph 53 % 0.00 in
16:28 59.1 °F 42.0 °F 30.35 in South 5.3 mph 10.4 mph 53 % 0.00 in
16:33 58.8 °F 41.2 °F 30.36 in SSW 7.3 mph 11.5 mph 52 % 0.00 in
16:38 58.9 °F 41.3 °F 30.35 in SE 5.5 mph 11.5 mph 52 % 0.00 in
16:43 58.6 °F 41.0 °F 30.35 in SSE 8.2 mph 12.0 mph 52 % 0.00 in
16:48 58.2 °F 41.1 °F 30.35 in SSE 4.9 mph 11.5 mph 53 % 0.00 in
16:54 58.0 °F 41.4 °F 30.35 in SE 4.0 mph 11.5 mph 54 % 0.00 in
16:59 57.8 °F 41.3 °F 30.36 in SSE 5.9 mph 8.0 mph 54 % 0.00 in
17:04 57.8 °F 40.8 °F 30.36 in SSE 3.9 mph 9.2 mph 53 % 0.00 in
17:09 57.8 °F 41.3 °F 30.36 in SSE 5.8 mph 10.4 mph 54 % 0.00 in
17:14 57.8 °F 40.8 °F 30.36 in South 4.9 mph 10.0 mph 53 % 0.00 in
17:19 57.6 °F 40.1 °F 30.37 in SSE 6.2 mph 9.0 mph 52 % 0.00 in
17:24 57.4 °F 40.4 °F 30.37 in SE 5.6 mph 11.0 mph 53 % 0.00 in
17:29 57.2 °F 39.7 °F 30.37 in SE 8.1 mph 10.4 mph 52 % 0.00 in
17:34 57.0 °F 40.0 °F 30.37 in SE 3.2 mph 9.2 mph 53 % 0.00 in
17:39 56.9 °F 40.4 °F 30.37 in SE 1.9 mph 9.2 mph 54 % 0.00 in
17:44 56.8 °F 39.8 °F 30.36 in South 4.2 mph 11.5 mph 53 % 0.00 in
17:49 56.7 °F 39.7 °F 30.37 in SSE 3.6 mph 9.2 mph 53 % 0.00 in
17:54 56.5 °F 39.1 °F 30.37 in SSE 8.2 mph 12.7 mph 52 % 0.00 in
17:59 56.1 °F 39.2 °F 30.37 in South 4.8 mph 9.2 mph 53 % 0.00 in
18:04 55.9 °F 39.0 °F 30.37 in South 4.8 mph 11.5 mph 53 % 0.00 in
18:09 55.9 °F 38.5 °F 30.37 in South 6.4 mph 9.2 mph 52 % 0.00 in
18:15 55.5 °F 38.1 °F 30.38 in South 3.5 mph 9.2 mph 52 % 0.00 in
18:20 55.2 °F 38.4 °F 30.38 in SE 7.1 mph 11.5 mph 53 % 0.00 in
18:25 54.9 °F 38.1 °F 30.37 in SSE 7.0 mph 13.8 mph 53 % 0.00 in
18:30 54.6 °F 38.3 °F 30.38 in SSE 3.0 mph 6.9 mph 54 % 0.00 in
18:35 54.4 °F 38.6 °F 30.38 in SSW 5.8 mph 13.8 mph 55 % 0.00 in
18:40 54.1 °F 38.7 °F 30.38 in SSE 3.6 mph 9.2 mph 56 % 0.00 in
18:45 53.9 °F 39.0 °F 30.38 in SE 4.8 mph 8.0 mph 57 % 0.00 in
18:50 53.6 °F 38.7 °F 30.39 in SE 4.7 mph 11.5 mph 57 % 0.00 in
18:55 53.2 °F 39.2 °F 30.39 in SE 3.3 mph 9.2 mph 59 % 0.00 in
19:00 53.0 °F 39.0 °F 30.39 in SSE 6.4 mph 10.0 mph 59 % 0.00 in
19:05 52.6 °F 38.2 °F 30.40 in SSE 6.5 mph 11.5 mph 58 % 0.00 in
19:10 52.1 °F 37.3 °F 30.40 in SSE 9.7 mph 15.0 mph 57 % 0.00 in
19:15 51.6 °F 37.3 °F 30.41 in SSE 5.5 mph 9.2 mph 58 % 0.00 in
19:20 51.4 °F 37.5 °F 30.41 in SE 7.5 mph 11.5 mph 59 % 0.00 in
19:25 51.0 °F 37.2 °F 30.41 in SSE 4.0 mph 11.5 mph 59 % 0.00 in
19:30 50.8 °F 37.0 °F 30.41 in SE 6.8 mph 10.4 mph 59 % 0.00 in
19:35 50.6 °F 37.2 °F 30.41 in SSE 5.3 mph 8.1 mph 60 % 0.00 in
19:40 50.5 °F 37.1 °F 30.42 in SSE 4.9 mph 11.5 mph 60 % 0.00 in
19:45 50.3 °F 37.4 °F 30.42 in SSE 7.6 mph 12.0 mph 61 % 0.00 in
19:50 50.1 °F 37.2 °F 30.42 in SE 3.1 mph 4.6 mph 61 % 0.00 in
19:56 50.0 °F 37.5 °F 30.43 in SE 4.2 mph 8.0 mph 62 % 0.00 in
20:01 49.9 °F 37.8 °F 30.43 in South 3.2 mph 6.9 mph 63 % 0.00 in
20:06 49.7 °F 38.0 °F 30.43 in SSE 5.7 mph 10.4 mph 64 % 0.00 in
20:16 49.3 °F 38.8 °F 30.44 in SE 4.1 mph 8.1 mph 67 % 0.00 in
20:21 49.2 °F 39.1 °F 30.44 in ESE 5.2 mph 9.2 mph 68 % 0.00 in
20:26 49.0 °F 39.6 °F 30.44 in ESE 3.8 mph 11.5 mph 70 % 0.00 in
20:31 48.9 °F 39.9 °F 30.45 in SSE 5.7 mph 6.9 mph 71 % 0.00 in
20:36 48.7 °F 39.7 °F 30.45 in SE 3.1 mph 4.6 mph 71 % 0.00 in
20:46 48.5 °F 40.6 °F 30.45 in ESE 3.9 mph 9.2 mph 74 % 0.00 in
20:51 48.4 °F 40.5 °F 30.45 in SE 5.8 mph 9.2 mph 74 % 0.00 in
20:56 48.3 °F 40.7 °F 30.45 in SE 5.0 mph 11.5 mph 75 % 0.00 in
21:01 48.2 °F 41.0 °F 30.46 in SSE 3.2 mph 5.8 mph 76 % 0.00 in
21:06 48.1 °F 41.2 °F 30.46 in SSE 4.2 mph 6.9 mph 77 % 0.00 in
21:11 48.0 °F 41.1 °F 30.46 in SE 0.5 mph 3.5 mph 77 % 0.00 in
21:16 47.9 °F 41.4 °F 30.47 in Calm     78 % 0.00 in
21:22 47.9 °F 41.4 °F 30.47 in SE 1.9 mph 6.0 mph 78 % 0.00 in
21:27 47.9 °F 41.7 °F 30.47 in ESE 3.4 mph 4.6 mph 79 % 0.00 in
21:32 47.8 °F 41.6 °F 30.47 in SE 2.7 mph 4.6 mph 79 % 0.00 in
21:36 47.8 °F 41.9 °F 30.47 in SSE 1.8 mph 5.8 mph 80 % 0.00 in
21:41 47.8 °F 41.9 °F 30.47 in SE 2.1 mph 4.6 mph 80 % 0.00 in
21:47 47.8 °F 41.9 °F 30.47 in SE 1.9 mph 6.0 mph 80 % 0.00 in
21:52 47.9 °F 42.0 °F 30.48 in SE 0.9 mph 2.3 mph 80 % 0.00 in
21:53 47.9 °F 42.0 °F 30.48 in SE 0.4 mph 2.3 mph 80 % 0.00 in
21:58 47.9 °F 42.0 °F 30.48 in SE 2.1 mph 9.2 mph 80 % 0.00 in
22:03 47.9 °F 42.0 °F 30.49 in SE 0.4 mph 2.3 mph 80 % 0.00 in
22:08 47.9 °F 41.7 °F 30.49 in SE 1.0 mph 3.5 mph 79 % 0.00 in
22:13 47.9 °F 41.7 °F 30.49 in ESE 0.7 mph 3.5 mph 79 % 0.00 in
22:18 47.9 °F 41.7 °F 30.49 in ESE 1.0 mph 3.5 mph 79 % 0.00 in
22:23 47.9 °F 41.7 °F 30.49 in ESE 5.9 mph 10.4 mph 79 % 0.00 in
22:28 47.8 °F 41.6 °F 30.49 in SSE 3.0 mph 5.8 mph 79 % 0.00 in
22:33 47.7 °F 41.5 °F 30.49 in East 1.2 mph 2.3 mph 79 % 0.00 in
22:38 47.7 °F 41.5 °F 30.49 in ESE 1.7 mph 4.6 mph 79 % 0.00 in
22:43 47.6 °F 41.4 °F 30.49 in South 1.8 mph 3.5 mph 79 % 0.00 in
22:48 47.5 °F 41.3 °F 30.49 in East 1.9 mph 5.8 mph 79 % 0.00 in
22:53 47.3 °F 41.1 °F 30.49 in SE 0.3 mph 2.3 mph 79 % 0.00 in
22:58 47.2 °F 41.0 °F 30.49 in SE 1.2 mph 3.5 mph 79 % 0.00 in
23:03 47.0 °F 40.8 °F 30.49 in ESE 1.4 mph 3.5 mph 79 % 0.00 in
23:09 46.8 °F 40.6 °F 30.50 in ESE 1.4 mph 3.5 mph 79 % 0.00 in
23:14 46.7 °F 40.9 °F 30.50 in SE 1.0 mph 2.3 mph 80 % 0.00 in
23:19 46.5 °F 40.7 °F 30.50 in SE 0.9 mph 2.3 mph 80 % 0.00 in
23:24 46.4 °F 40.6 °F 30.50 in SSE 0.8 mph 2.3 mph 80 % 0.00 in
23:29 46.3 °F 40.5 °F 30.50 in Calm   3.5 mph 80 % 0.00 in
23:34 46.2 °F 40.7 °F 30.50 in Calm     81 % 0.00 in
23:39 46.1 °F 40.6 °F 30.50 in Calm     81 % 0.00 in
23:44 46.1 °F 40.6 °F 30.49 in SSE 0.2 mph 2.3 mph 81 % 0.00 in
23:49 46.0 °F 40.8 °F 30.49 in Calm     82 % 0.00 in
23:54 45.9 °F 40.7 °F 30.49 in Calm     82 % 0.00 in
23:59 45.8 °F 40.6 °F 30.49 in SSE 0.9 mph 2.0 mph 82 % 0.00 in
Crab Meadow Weather
Compliments of Weather Underground - 3 mb

Script developed by  Jim McMurry - jmcmurry@mwt.net Adapted for the template by  Wim van der Kuil - Leuven-Template.eu

One Inch of Rain: One inch of rain over one square mile equals to 17.4 million gallons of water.